sensor_id;sensor_type;location;lat;lon;timestamp;P1;durP1;ratioP1;P2;durP2;ratioP2
20411;SDS011;10365;52.578;8.138;2023-03-31T00:01:10;10.25;;;2.72;;
20411;SDS011;10365;52.578;8.138;2023-03-31T00:03:35;13.40;;;3.40;;
20411;SDS011;10365;52.578;8.138;2023-03-31T00:06:02;14.82;;;2.72;;
20411;SDS011;10365;52.578;8.138;2023-03-31T00:08:29;9.13;;;2.95;;
20411;SDS011;10365;52.578;8.138;2023-03-31T00:10:59;10.10;;;2.22;;
20411;SDS011;10365;52.578;8.138;2023-03-31T00:13:28;9.43;;;2.67;;
20411;SDS011;10365;52.578;8.138;2023-03-31T00:16:00;10.40;;;2.15;;
20411;SDS011;10365;52.578;8.138;2023-03-31T00:18:26;13.52;;;2.85;;
20411;SDS011;10365;52.578;8.138;2023-03-31T00:20:52;9.13;;;2.60;;
20411;SDS011;10365;52.578;8.138;2023-03-31T00:23:18;13.80;;;2.85;;
20411;SDS011;10365;52.578;8.138;2023-03-31T00:25:55;13.30;;;2.80;;
20411;SDS011;10365;52.578;8.138;2023-03-31T00:28:20;15.35;;;2.75;;
20411;SDS011;10365;52.578;8.138;2023-03-31T00:30:46;11.82;;;2.33;;
20411;SDS011;10365;52.578;8.138;2023-03-31T00:33:12;10.23;;;2.80;;
20411;SDS011;10365;52.578;8.138;2023-03-31T00:35:37;11.15;;;2.42;;
20411;SDS011;10365;52.578;8.138;2023-03-31T00:38:03;10.82;;;2.42;;
20411;SDS011;10365;52.578;8.138;2023-03-31T00:40:30;6.50;;;2.20;;
20411;SDS011;10365;52.578;8.138;2023-03-31T00:42:55;11.23;;;2.35;;
20411;SDS011;10365;52.578;8.138;2023-03-31T00:45:23;9.52;;;2.50;;
20411;SDS011;10365;52.578;8.138;2023-03-31T00:50:31;14.57;;;2.70;;
20411;SDS011;10365;52.578;8.138;2023-03-31T00:53:13;8.48;;;1.77;;
20411;SDS011;10365;52.578;8.138;2023-03-31T00:55:41;14.38;;;2.20;;
20411;SDS011;10365;52.578;8.138;2023-03-31T00:58:08;15.27;;;2.38;;
20411;SDS011;10365;52.578;8.138;2023-03-31T01:00:38;11.50;;;2.30;;
20411;SDS011;10365;52.578;8.138;2023-03-31T01:03:05;12.45;;;2.05;;
20411;SDS011;10365;52.578;8.138;2023-03-31T01:05:32;13.90;;;2.42;;
20411;SDS011;10365;52.578;8.138;2023-03-31T01:07:58;19.90;;;2.72;;
20411;SDS011;10365;52.578;8.138;2023-03-31T01:10:24;10.25;;;2.15;;
20411;SDS011;10365;52.578;8.138;2023-03-31T01:12:51;16.67;;;2.08;;
20411;SDS011;10365;52.578;8.138;2023-03-31T01:15:18;11.25;;;2.60;;
20411;SDS011;10365;52.578;8.138;2023-03-31T01:17:44;12.50;;;2.40;;
20411;SDS011;10365;52.578;8.138;2023-03-31T01:22:42;10.77;;;2.03;;
20411;SDS011;10365;52.578;8.138;2023-03-31T01:27:59;10.43;;;2.20;;
20411;SDS011;10365;52.578;8.138;2023-03-31T01:30:35;10.07;;;2.38;;
20411;SDS011;10365;52.578;8.138;2023-03-31T01:50:54;12.02;;;2.40;;
20411;SDS011;10365;52.578;8.138;2023-03-31T01:55:59;10.93;;;2.50;;
20411;SDS011;10365;52.578;8.138;2023-03-31T01:58:40;9.30;;;2.42;;
20411;SDS011;10365;52.578;8.138;2023-03-31T02:01:20;10.65;;;2.40;;
20411;SDS011;10365;52.578;8.138;2023-03-31T02:03:54;13.95;;;2.20;;
20411;SDS011;10365;52.578;8.138;2023-03-31T02:06:25;9.27;;;2.63;;
20411;SDS011;10365;52.578;8.138;2023-03-31T02:08:59;11.60;;;2.35;;
20411;SDS011;10365;52.578;8.138;2023-03-31T02:11:27;10.63;;;2.38;;
20411;SDS011;10365;52.578;8.138;2023-03-31T02:13:53;8.35;;;2.40;;
20411;SDS011;10365;52.578;8.138;2023-03-31T02:16:21;10.50;;;2.65;;
20411;SDS011;10365;52.578;8.138;2023-03-31T02:18:49;8.85;;;2.55;;
20411;SDS011;10365;52.578;8.138;2023-03-31T02:21:18;10.68;;;2.50;;
20411;SDS011;10365;52.578;8.138;2023-03-31T02:23:44;12.70;;;3.10;;
20411;SDS011;10365;52.578;8.138;2023-03-31T02:26:24;9.13;;;3.05;;
20411;SDS011;10365;52.578;8.138;2023-03-31T02:28:51;17.25;;;3.80;;
20411;SDS011;10365;52.578;8.138;2023-03-31T02:33:55;11.93;;;3.63;;
20411;SDS011;10365;52.578;8.138;2023-03-31T02:36:21;11.48;;;3.90;;
20411;SDS011;10365;52.578;8.138;2023-03-31T02:38:48;12.02;;;3.75;;
20411;SDS011;10365;52.578;8.138;2023-03-31T02:41:15;18.45;;;4.35;;
20411;SDS011;10365;52.578;8.138;2023-03-31T02:43:40;14.65;;;4.30;;
20411;SDS011;10365;52.578;8.138;2023-03-31T02:46:06;11.68;;;3.85;;
20411;SDS011;10365;52.578;8.138;2023-03-31T02:48:33;10.80;;;4.55;;
20411;SDS011;10365;52.578;8.138;2023-03-31T02:53:55;17.73;;;4.82;;
20411;SDS011;10365;52.578;8.138;2023-03-31T03:01:31;13.55;;;5.32;;
20411;SDS011;10365;52.578;8.138;2023-03-31T03:06:38;14.25;;;5.10;;
20411;SDS011;10365;52.578;8.138;2023-03-31T03:09:24;18.45;;;5.25;;
20411;SDS011;10365;52.578;8.138;2023-03-31T03:12:16;13.20;;;4.82;;
20411;SDS011;10365;52.578;8.138;2023-03-31T03:19:54;14.35;;;5.25;;
20411;SDS011;10365;52.578;8.138;2023-03-31T03:22:20;13.40;;;4.80;;
20411;SDS011;10365;52.578;8.138;2023-03-31T03:24:46;13.00;;;5.47;;
20411;SDS011;10365;52.578;8.138;2023-03-31T03:27:11;13.98;;;5.25;;
20411;SDS011;10365;52.578;8.138;2023-03-31T03:29:36;17.15;;;5.22;;
20411;SDS011;10365;52.578;8.138;2023-03-31T03:32:02;12.32;;;4.85;;
20411;SDS011;10365;52.578;8.138;2023-03-31T03:34:27;16.33;;;5.15;;
20411;SDS011;10365;52.578;8.138;2023-03-31T03:36:53;14.93;;;5.55;;
20411;SDS011;10365;52.578;8.138;2023-03-31T03:39:18;10.13;;;5.15;;
20411;SDS011;10365;52.578;8.138;2023-03-31T03:41:44;15.20;;;6.18;;
20411;SDS011;10365;52.578;8.138;2023-03-31T03:44:10;12.70;;;4.97;;
20411;SDS011;10365;52.578;8.138;2023-03-31T03:46:36;16.48;;;5.53;;
20411;SDS011;10365;52.578;8.138;2023-03-31T03:49:01;11.90;;;4.85;;
20411;SDS011;10365;52.578;8.138;2023-03-31T03:51:26;13.88;;;5.25;;
20411;SDS011;10365;52.578;8.138;2023-03-31T03:53:52;11.35;;;6.07;;
20411;SDS011;10365;52.578;8.138;2023-03-31T03:56:17;14.68;;;4.97;;
20411;SDS011;10365;52.578;8.138;2023-03-31T03:58:42;18.90;;;6.32;;
20411;SDS011;10365;52.578;8.138;2023-03-31T04:01:08;13.95;;;6.25;;
20411;SDS011;10365;52.578;8.138;2023-03-31T04:03:33;19.02;;;6.05;;
20411;SDS011;10365;52.578;8.138;2023-03-31T04:05:58;17.88;;;5.43;;
20411;SDS011;10365;52.578;8.138;2023-03-31T04:08:26;14.52;;;5.93;;
20411;SDS011;10365;52.578;8.138;2023-03-31T04:10:52;12.27;;;5.90;;
20411;SDS011;10365;52.578;8.138;2023-03-31T04:13:18;13.65;;;6.03;;
20411;SDS011;10365;52.578;8.138;2023-03-31T04:15:43;14.38;;;6.32;;
20411;SDS011;10365;52.578;8.138;2023-03-31T04:18:09;18.85;;;6.68;;
20411;SDS011;10365;52.578;8.138;2023-03-31T04:20:43;16.98;;;5.70;;
20411;SDS011;10365;52.578;8.138;2023-03-31T04:23:09;13.52;;;6.00;;
20411;SDS011;10365;52.578;8.138;2023-03-31T04:25:34;17.05;;;7.30;;
20411;SDS011;10365;52.578;8.138;2023-03-31T04:28:03;15.85;;;6.38;;
20411;SDS011;10365;52.578;8.138;2023-03-31T04:30:31;12.50;;;5.72;;
20411;SDS011;10365;52.578;8.138;2023-03-31T04:32:57;17.88;;;6.60;;
20411;SDS011;10365;52.578;8.138;2023-03-31T04:35:24;11.93;;;6.05;;
20411;SDS011;10365;52.578;8.138;2023-03-31T04:37:50;14.10;;;5.43;;
20411;SDS011;10365;52.578;8.138;2023-03-31T04:40:16;16.08;;;5.80;;
20411;SDS011;10365;52.578;8.138;2023-03-31T04:42:42;15.73;;;5.72;;
20411;SDS011;10365;52.578;8.138;2023-03-31T04:45:08;18.35;;;6.38;;
20411;SDS011;10365;52.578;8.138;2023-03-31T04:47:33;14.32;;;5.80;;
20411;SDS011;10365;52.578;8.138;2023-03-31T04:49:59;13.52;;;5.72;;
20411;SDS011;10365;52.578;8.138;2023-03-31T04:52:24;13.68;;;5.90;;
20411;SDS011;10365;52.578;8.138;2023-03-31T04:54:50;11.57;;;5.03;;
20411;SDS011;10365;52.578;8.138;2023-03-31T04:57:15;19.17;;;4.57;;
20411;SDS011;10365;52.578;8.138;2023-03-31T04:59:41;8.32;;;4.35;;
20411;SDS011;10365;52.578;8.138;2023-03-31T05:02:06;11.85;;;4.70;;
20411;SDS011;10365;52.578;8.138;2023-03-31T05:04:31;12.23;;;4.05;;
20411;SDS011;10365;52.578;8.138;2023-03-31T05:06:57;15.23;;;4.80;;
20411;SDS011;10365;52.578;8.138;2023-03-31T05:09:22;10.82;;;4.47;;
20411;SDS011;10365;52.578;8.138;2023-03-31T05:11:48;13.40;;;4.82;;
20411;SDS011;10365;52.578;8.138;2023-03-31T05:14:13;11.48;;;5.18;;
20411;SDS011;10365;52.578;8.138;2023-03-31T05:16:39;11.63;;;5.53;;
20411;SDS011;10365;52.578;8.138;2023-03-31T05:19:06;16.27;;;6.47;;
20411;SDS011;10365;52.578;8.138;2023-03-31T05:21:31;11.50;;;5.78;;
20411;SDS011;10365;52.578;8.138;2023-03-31T05:23:57;19.25;;;7.53;;
20411;SDS011;10365;52.578;8.138;2023-03-31T05:26:36;17.10;;;8.82;;
20411;SDS011;10365;52.578;8.138;2023-03-31T05:29:02;21.08;;;9.90;;
20411;SDS011;10365;52.578;8.138;2023-03-31T05:31:28;20.77;;;10.15;;
20411;SDS011;10365;52.578;8.138;2023-03-31T05:33:53;18.45;;;9.70;;
20411;SDS011;10365;52.578;8.138;2023-03-31T05:36:29;22.30;;;10.25;;
20411;SDS011;10365;52.578;8.138;2023-03-31T05:38:54;22.45;;;11.23;;
20411;SDS011;10365;52.578;8.138;2023-03-31T05:41:20;18.67;;;9.88;;
20411;SDS011;10365;52.578;8.138;2023-03-31T05:44:03;26.42;;;11.75;;
20411;SDS011;10365;52.578;8.138;2023-03-31T05:46:29;21.00;;;10.85;;
20411;SDS011;10365;52.578;8.138;2023-03-31T05:48:54;23.70;;;11.23;;
20411;SDS011;10365;52.578;8.138;2023-03-31T05:51:21;21.60;;;11.85;;
20411;SDS011;10365;52.578;8.138;2023-03-31T05:53:46;19.33;;;12.27;;
20411;SDS011;10365;52.578;8.138;2023-03-31T05:56:12;22.50;;;12.30;;
20411;SDS011;10365;52.578;8.138;2023-03-31T05:58:37;24.27;;;13.60;;
20411;SDS011;10365;52.578;8.138;2023-03-31T06:01:07;25.88;;;14.10;;
20411;SDS011;10365;52.578;8.138;2023-03-31T06:03:34;24.17;;;12.98;;
20411;SDS011;10365;52.578;8.138;2023-03-31T06:06:00;23.73;;;13.52;;
20411;SDS011;10365;52.578;8.138;2023-03-31T06:08:26;25.38;;;14.27;;
20411;SDS011;10365;52.578;8.138;2023-03-31T06:10:52;25.85;;;13.15;;
20411;SDS011;10365;52.578;8.138;2023-03-31T06:13:17;32.05;;;14.55;;
20411;SDS011;10365;52.578;8.138;2023-03-31T06:15:55;25.80;;;14.75;;
20411;SDS011;10365;52.578;8.138;2023-03-31T06:18:21;24.88;;;13.88;;
20411;SDS011;10365;52.578;8.138;2023-03-31T06:20:46;29.92;;;13.85;;
20411;SDS011;10365;52.578;8.138;2023-03-31T06:23:12;29.83;;;14.95;;
20411;SDS011;10365;52.578;8.138;2023-03-31T06:25:37;30.83;;;14.65;;
20411;SDS011;10365;52.578;8.138;2023-03-31T06:28:03;31.75;;;14.73;;
20411;SDS011;10365;52.578;8.138;2023-03-31T06:30:28;32.17;;;15.13;;
20411;SDS011;10365;52.578;8.138;2023-03-31T06:32:54;25.83;;;15.15;;
20411;SDS011;10365;52.578;8.138;2023-03-31T06:35:20;29.08;;;15.52;;
20411;SDS011;10365;52.578;8.138;2023-03-31T06:37:45;33.30;;;15.23;;
20411;SDS011;10365;52.578;8.138;2023-03-31T06:40:10;24.52;;;14.07;;
20411;SDS011;10365;52.578;8.138;2023-03-31T06:42:36;22.23;;;14.43;;
20411;SDS011;10365;52.578;8.138;2023-03-31T06:45:01;29.20;;;14.02;;
20411;SDS011;10365;52.578;8.138;2023-03-31T06:47:27;28.65;;;14.30;;
20411;SDS011;10365;52.578;8.138;2023-03-31T06:49:52;26.77;;;13.77;;
20411;SDS011;10365;52.578;8.138;2023-03-31T06:52:17;29.27;;;13.35;;
20411;SDS011;10365;52.578;8.138;2023-03-31T06:54:43;28.00;;;14.20;;
20411;SDS011;10365;52.578;8.138;2023-03-31T06:57:08;31.15;;;13.93;;
20411;SDS011;10365;52.578;8.138;2023-03-31T06:59:34;29.40;;;13.07;;
20411;SDS011;10365;52.578;8.138;2023-03-31T07:01:59;30.15;;;13.85;;
20411;SDS011;10365;52.578;8.138;2023-03-31T07:04:26;19.55;;;11.35;;
20411;SDS011;10365;52.578;8.138;2023-03-31T07:06:54;27.83;;;12.77;;
20411;SDS011;10365;52.578;8.138;2023-03-31T07:09:21;26.70;;;12.63;;
20411;SDS011;10365;52.578;8.138;2023-03-31T07:11:48;24.95;;;12.73;;
20411;SDS011;10365;52.578;8.138;2023-03-31T07:14:13;29.45;;;13.48;;
20411;SDS011;10365;52.578;8.138;2023-03-31T07:16:39;24.10;;;11.98;;
20411;SDS011;10365;52.578;8.138;2023-03-31T07:19:05;19.15;;;11.60;;
20411;SDS011;10365;52.578;8.138;2023-03-31T07:21:31;26.38;;;12.23;;
20411;SDS011;10365;52.578;8.138;2023-03-31T07:23:56;21.50;;;10.95;;
20411;SDS011;10365;52.578;8.138;2023-03-31T07:26:22;19.90;;;10.98;;
20411;SDS011;10365;52.578;8.138;2023-03-31T07:28:48;24.58;;;11.18;;
20411;SDS011;10365;52.578;8.138;2023-03-31T07:31:14;22.80;;;10.75;;
20411;SDS011;10365;52.578;8.138;2023-03-31T07:33:40;17.80;;;9.60;;
20411;SDS011;10365;52.578;8.138;2023-03-31T07:36:05;19.92;;;10.70;;
20411;SDS011;10365;52.578;8.138;2023-03-31T07:38:31;25.77;;;10.02;;
20411;SDS011;10365;52.578;8.138;2023-03-31T07:40:57;17.35;;;9.35;;
20411;SDS011;10365;52.578;8.138;2023-03-31T07:43:22;18.00;;;8.70;;
20411;SDS011;10365;52.578;8.138;2023-03-31T07:45:48;17.35;;;10.07;;
20411;SDS011;10365;52.578;8.138;2023-03-31T07:48:13;19.20;;;9.98;;
20411;SDS011;10365;52.578;8.138;2023-03-31T07:50:39;17.00;;;9.25;;
20411;SDS011;10365;52.578;8.138;2023-03-31T07:53:11;23.55;;;9.15;;
20411;SDS011;10365;52.578;8.138;2023-03-31T07:55:39;25.85;;;9.25;;
20411;SDS011;10365;52.578;8.138;2023-03-31T07:58:04;15.57;;;7.85;;
20411;SDS011;10365;52.578;8.138;2023-03-31T08:00:30;19.13;;;8.45;;
20411;SDS011;10365;52.578;8.138;2023-03-31T08:02:56;19.13;;;8.48;;
20411;SDS011;10365;52.578;8.138;2023-03-31T08:05:21;21.70;;;8.02;;
20411;SDS011;10365;52.578;8.138;2023-03-31T08:07:47;19.90;;;7.20;;
20411;SDS011;10365;52.578;8.138;2023-03-31T08:10:15;17.70;;;7.18;;
20411;SDS011;10365;52.578;8.138;2023-03-31T08:12:41;15.30;;;6.82;;
20411;SDS011;10365;52.578;8.138;2023-03-31T08:15:07;18.13;;;6.80;;
20411;SDS011;10365;52.578;8.138;2023-03-31T08:17:32;14.00;;;7.05;;
20411;SDS011;10365;52.578;8.138;2023-03-31T08:19:58;12.27;;;6.50;;
20411;SDS011;10365;52.578;8.138;2023-03-31T08:22:23;16.55;;;6.28;;
20411;SDS011;10365;52.578;8.138;2023-03-31T08:24:51;11.25;;;4.97;;
20411;SDS011;10365;52.578;8.138;2023-03-31T08:27:17;17.27;;;6.28;;
20411;SDS011;10365;52.578;8.138;2023-03-31T08:29:42;16.05;;;4.82;;
20411;SDS011;10365;52.578;8.138;2023-03-31T08:32:07;11.88;;;4.65;;
20411;SDS011;10365;52.578;8.138;2023-03-31T08:34:33;13.73;;;4.75;;
20411;SDS011;10365;52.578;8.138;2023-03-31T08:36:58;8.27;;;4.28;;
20411;SDS011;10365;52.578;8.138;2023-03-31T08:39:24;12.98;;;3.50;;
20411;SDS011;10365;52.578;8.138;2023-03-31T08:44:16;8.52;;;3.35;;
20411;SDS011;10365;52.578;8.138;2023-03-31T08:46:43;10.35;;;3.70;;
20411;SDS011;10365;52.578;8.138;2023-03-31T08:49:12;8.48;;;3.22;;
20411;SDS011;10365;52.578;8.138;2023-03-31T08:51:40;9.60;;;3.22;;
20411;SDS011;10365;52.578;8.138;2023-03-31T08:56:35;8.90;;;2.97;;
20411;SDS011;10365;52.578;8.138;2023-03-31T08:59:05;7.32;;;2.85;;
20411;SDS011;10365;52.578;8.138;2023-03-31T09:01:46;5.32;;;2.70;;
20411;SDS011;10365;52.578;8.138;2023-03-31T09:07:17;8.13;;;2.78;;
20411;SDS011;10365;52.578;8.138;2023-03-31T09:10:33;6.25;;;2.22;;
20411;SDS011;10365;52.578;8.138;2023-03-31T09:14:59;4.18;;;2.13;;
20411;SDS011;10365;52.578;8.138;2023-03-31T09:17:26;7.88;;;2.22;;
20411;SDS011;10365;52.578;8.138;2023-03-31T09:19:54;6.97;;;1.73;;
20411;SDS011;10365;52.578;8.138;2023-03-31T09:22:25;4.43;;;2.08;;
20411;SDS011;10365;52.578;8.138;2023-03-31T09:24:53;3.22;;;1.63;;
20411;SDS011;10365;52.578;8.138;2023-03-31T09:27:20;3.72;;;1.50;;
20411;SDS011;10365;52.578;8.138;2023-03-31T09:32:17;4.03;;;1.80;;
20411;SDS011;10365;52.578;8.138;2023-03-31T09:34:43;6.75;;;1.98;;
20411;SDS011;10365;52.578;8.138;2023-03-31T09:37:10;8.57;;;2.42;;
20411;SDS011;10365;52.578;8.138;2023-03-31T09:39:35;2.30;;;1.90;;
20411;SDS011;10365;52.578;8.138;2023-03-31T09:42:02;4.95;;;2.20;;
20411;SDS011;10365;52.578;8.138;2023-03-31T09:44:46;4.97;;;2.15;;
20411;SDS011;10365;52.578;8.138;2023-03-31T09:47:26;3.47;;;2.40;;
20411;SDS011;10365;52.578;8.138;2023-03-31T09:49:53;5.05;;;2.63;;
20411;SDS011;10365;52.578;8.138;2023-03-31T09:54:49;3.95;;;2.40;;
20411;SDS011;10365;52.578;8.138;2023-03-31T09:57:24;6.47;;;2.60;;
20411;SDS011;10365;52.578;8.138;2023-03-31T09:59:50;7.72;;;2.50;;
20411;SDS011;10365;52.578;8.138;2023-03-31T10:02:20;5.13;;;2.35;;
20411;SDS011;10365;52.578;8.138;2023-03-31T10:04:47;6.05;;;2.30;;
20411;SDS011;10365;52.578;8.138;2023-03-31T10:07:18;4.63;;;2.60;;
20411;SDS011;10365;52.578;8.138;2023-03-31T10:09:44;6.50;;;2.60;;
20411;SDS011;10365;52.578;8.138;2023-03-31T10:12:18;4.15;;;2.42;;
20411;SDS011;10365;52.578;8.138;2023-03-31T10:14:45;5.35;;;2.95;;
20411;SDS011;10365;52.578;8.138;2023-03-31T10:17:15;5.07;;;2.30;;
20411;SDS011;10365;52.578;8.138;2023-03-31T10:19:48;4.80;;;2.60;;
20411;SDS011;10365;52.578;8.138;2023-03-31T10:22:17;3.22;;;2.13;;
20411;SDS011;10365;52.578;8.138;2023-03-31T10:24:50;4.68;;;2.83;;
20411;SDS011;10365;52.578;8.138;2023-03-31T10:27:23;4.07;;;1.63;;
20411;SDS011;10365;52.578;8.138;2023-03-31T10:29:56;6.70;;;1.90;;
20411;SDS011;10365;52.578;8.138;2023-03-31T10:32:26;5.65;;;2.25;;
20411;SDS011;10365;52.578;8.138;2023-03-31T10:34:53;3.05;;;1.88;;
20411;SDS011;10365;52.578;8.138;2023-03-31T10:37:20;2.78;;;1.65;;
20411;SDS011;10365;52.578;8.138;2023-03-31T10:39:46;4.05;;;1.67;;
20411;SDS011;10365;52.578;8.138;2023-03-31T10:42:20;8.82;;;2.42;;
20411;SDS011;10365;52.578;8.138;2023-03-31T10:44:46;5.57;;;2.35;;
20411;SDS011;10365;52.578;8.138;2023-03-31T10:49:38;3.65;;;1.45;;
20411;SDS011;10365;52.578;8.138;2023-03-31T10:52:14;5.22;;;1.70;;
20411;SDS011;10365;52.578;8.138;2023-03-31T10:54:48;3.72;;;1.70;;
20411;SDS011;10365;52.578;8.138;2023-03-31T10:57:13;3.08;;;1.50;;
20411;SDS011;10365;52.578;8.138;2023-03-31T11:13:04;5.20;;;1.85;;
20411;SDS011;10365;52.578;8.138;2023-03-31T11:15:38;6.13;;;1.92;;
20411;SDS011;10365;52.578;8.138;2023-03-31T11:23:40;3.83;;;1.85;;
20411;SDS011;10365;52.578;8.138;2023-03-31T11:36:38;12.57;;;2.83;;
20411;SDS011;10365;52.578;8.138;2023-03-31T11:41:45;5.57;;;3.03;;
20411;SDS011;10365;52.578;8.138;2023-03-31T11:44:14;5.13;;;2.53;;
20411;SDS011;10365;52.578;8.138;2023-03-31T11:49:23;5.90;;;3.00;;
20411;SDS011;10365;52.578;8.138;2023-03-31T11:52:33;4.57;;;2.00;;
20411;SDS011;10365;52.578;8.138;2023-03-31T11:57:18;10.20;;;4.65;;
20411;SDS011;10365;52.578;8.138;2023-03-31T11:59:45;6.65;;;2.83;;
20411;SDS011;10365;52.578;8.138;2023-03-31T12:04:43;9.75;;;3.00;;
20411;SDS011;10365;52.578;8.138;2023-03-31T12:07:19;13.48;;;3.92;;
20411;SDS011;10365;52.578;8.138;2023-03-31T12:09:51;7.00;;;3.40;;
20411;SDS011;10365;52.578;8.138;2023-03-31T12:12:22;6.70;;;3.17;;
20411;SDS011;10365;52.578;8.138;2023-03-31T12:17:16;8.43;;;2.88;;
20411;SDS011;10365;52.578;8.138;2023-03-31T12:24:33;9.13;;;3.83;;
20411;SDS011;10365;52.578;8.138;2023-03-31T12:27:10;9.95;;;3.90;;
20411;SDS011;10365;52.578;8.138;2023-03-31T12:29:38;10.40;;;2.80;;
20411;SDS011;10365;52.578;8.138;2023-03-31T12:32:18;9.32;;;3.30;;
20411;SDS011;10365;52.578;8.138;2023-03-31T12:34:47;7.22;;;2.80;;
20411;SDS011;10365;52.578;8.138;2023-03-31T12:50:40;7.38;;;3.28;;
20411;SDS011;10365;52.578;8.138;2023-03-31T12:58:14;7.18;;;4.03;;
20411;SDS011;10365;52.578;8.138;2023-03-31T13:00:42;8.80;;;3.58;;
20411;SDS011;10365;52.578;8.138;2023-03-31T13:05:58;7.30;;;4.10;;
20411;SDS011;10365;52.578;8.138;2023-03-31T13:11:07;11.52;;;5.38;;
20411;SDS011;10365;52.578;8.138;2023-03-31T13:13:33;12.80;;;5.18;;
20411;SDS011;10365;52.578;8.138;2023-03-31T13:15:59;12.50;;;5.50;;
20411;SDS011;10365;52.578;8.138;2023-03-31T13:18:25;13.80;;;6.07;;
20411;SDS011;10365;52.578;8.138;2023-03-31T13:21:03;15.23;;;7.07;;
20411;SDS011;10365;52.578;8.138;2023-03-31T13:23:30;12.20;;;5.57;;
20411;SDS011;10365;52.578;8.138;2023-03-31T13:25:58;14.68;;;5.60;;
20411;SDS011;10365;52.578;8.138;2023-03-31T13:28:25;19.70;;;9.07;;
20411;SDS011;10365;52.578;8.138;2023-03-31T13:33:26;19.80;;;8.00;;
20411;SDS011;10365;52.578;8.138;2023-03-31T13:35:56;12.90;;;7.88;;
20411;SDS011;10365;52.578;8.138;2023-03-31T13:38:29;11.35;;;6.15;;
20411;SDS011;10365;52.578;8.138;2023-03-31T13:44:03;13.60;;;6.53;;
20411;SDS011;10365;52.578;8.138;2023-03-31T13:51:52;15.13;;;8.05;;
20411;SDS011;10365;52.578;8.138;2023-03-31T14:02:31;15.13;;;7.57;;
20411;SDS011;10365;52.578;8.138;2023-03-31T14:13:02;12.60;;;6.93;;
20411;SDS011;10365;52.578;8.138;2023-03-31T14:15:28;14.55;;;6.13;;
20411;SDS011;10365;52.578;8.138;2023-03-31T14:17:53;18.73;;;10.05;;
20411;SDS011;10365;52.578;8.138;2023-03-31T14:32:46;16.17;;;6.53;;
20411;SDS011;10365;52.578;8.138;2023-03-31T14:35:32;12.70;;;4.60;;
20411;SDS011;10365;52.578;8.138;2023-03-31T14:38:02;14.38;;;7.30;;
20411;SDS011;10365;52.578;8.138;2023-03-31T14:40:30;20.17;;;7.72;;
20411;SDS011;10365;52.578;8.138;2023-03-31T14:42:55;19.85;;;8.55;;
20411;SDS011;10365;52.578;8.138;2023-03-31T14:45:22;16.45;;;9.77;;
20411;SDS011;10365;52.578;8.138;2023-03-31T14:47:56;16.40;;;7.28;;
20411;SDS011;10365;52.578;8.138;2023-03-31T14:50:27;18.38;;;6.07;;
20411;SDS011;10365;52.578;8.138;2023-03-31T14:52:53;14.43;;;5.15;;
20411;SDS011;10365;52.578;8.138;2023-03-31T14:55:21;14.18;;;5.68;;
20411;SDS011;10365;52.578;8.138;2023-03-31T14:57:47;17.23;;;4.75;;
20411;SDS011;10365;52.578;8.138;2023-03-31T15:00:16;13.18;;;3.28;;
20411;SDS011;10365;52.578;8.138;2023-03-31T15:02:44;11.95;;;2.88;;
20411;SDS011;10365;52.578;8.138;2023-03-31T15:05:18;9.60;;;3.03;;
20411;SDS011;10365;52.578;8.138;2023-03-31T15:07:45;9.40;;;2.38;;
20411;SDS011;10365;52.578;8.138;2023-03-31T15:10:12;13.07;;;2.42;;
20411;SDS011;10365;52.578;8.138;2023-03-31T15:12:40;11.70;;;2.13;;
20411;SDS011;10365;52.578;8.138;2023-03-31T15:15:06;7.57;;;2.25;;
20411;SDS011;10365;52.578;8.138;2023-03-31T15:17:36;9.60;;;2.30;;
20411;SDS011;10365;52.578;8.138;2023-03-31T15:22:47;9.90;;;2.53;;
20411;SDS011;10365;52.578;8.138;2023-03-31T15:25:13;11.18;;;2.53;;
20411;SDS011;10365;52.578;8.138;2023-03-31T15:27:41;12.32;;;2.72;;
20411;SDS011;10365;52.578;8.138;2023-03-31T15:30:22;10.20;;;2.00;;
20411;SDS011;10365;52.578;8.138;2023-03-31T15:32:48;9.07;;;1.77;;
20411;SDS011;10365;52.578;8.138;2023-03-31T15:35:19;9.32;;;2.03;;
20411;SDS011;10365;52.578;8.138;2023-03-31T15:37:45;11.05;;;2.70;;
20411;SDS011;10365;52.578;8.138;2023-03-31T15:40:21;13.88;;;3.00;;
20411;SDS011;10365;52.578;8.138;2023-03-31T15:42:47;6.07;;;1.90;;
20411;SDS011;10365;52.578;8.138;2023-03-31T15:47:57;8.40;;;2.17;;
20411;SDS011;10365;52.578;8.138;2023-03-31T15:50:25;9.68;;;2.10;;
20411;SDS011;10365;52.578;8.138;2023-03-31T15:52:53;7.47;;;1.40;;
20411;SDS011;10365;52.578;8.138;2023-03-31T15:55:29;10.85;;;3.92;;
20411;SDS011;10365;52.578;8.138;2023-03-31T15:57:56;12.15;;;2.10;;
20411;SDS011;10365;52.578;8.138;2023-03-31T16:03:22;10.20;;;2.95;;
20411;SDS011;10365;52.578;8.138;2023-03-31T16:05:55;10.32;;;1.70;;
20411;SDS011;10365;52.578;8.138;2023-03-31T16:08:23;7.50;;;2.03;;
20411;SDS011;10365;52.578;8.138;2023-03-31T16:11:00;6.75;;;1.88;;
20411;SDS011;10365;52.578;8.138;2023-03-31T16:13:27;5.40;;;1.52;;
20411;SDS011;10365;52.578;8.138;2023-03-31T16:15:54;9.95;;;2.38;;
20411;SDS011;10365;52.578;8.138;2023-03-31T16:18:31;6.30;;;1.58;;
20411;SDS011;10365;52.578;8.138;2023-03-31T16:20:59;12.48;;;2.63;;
20411;SDS011;10365;52.578;8.138;2023-03-31T16:23:29;19.33;;;6.63;;
20411;SDS011;10365;52.578;8.138;2023-03-31T16:25:55;7.07;;;2.08;;
20411;SDS011;10365;52.578;8.138;2023-03-31T16:28:21;11.07;;;2.00;;
20411;SDS011;10365;52.578;8.138;2023-03-31T16:30:48;8.23;;;1.75;;
20411;SDS011;10365;52.578;8.138;2023-03-31T16:33:14;9.73;;;1.88;;
20411;SDS011;10365;52.578;8.138;2023-03-31T16:35:41;5.88;;;1.80;;
20411;SDS011;10365;52.578;8.138;2023-03-31T16:38:08;11.68;;;2.28;;
20411;SDS011;10365;52.578;8.138;2023-03-31T16:40:35;7.63;;;1.98;;
20411;SDS011;10365;52.578;8.138;2023-03-31T16:45:36;12.13;;;2.38;;
20411;SDS011;10365;52.578;8.138;2023-03-31T16:48:02;11.50;;;2.75;;
20411;SDS011;10365;52.578;8.138;2023-03-31T16:50:27;9.95;;;2.33;;
20411;SDS011;10365;52.578;8.138;2023-03-31T16:52:54;6.88;;;1.83;;
20411;SDS011;10365;52.578;8.138;2023-03-31T16:55:20;10.02;;;3.47;;
20411;SDS011;10365;52.578;8.138;2023-03-31T16:57:45;8.50;;;2.58;;
20411;SDS011;10365;52.578;8.138;2023-03-31T17:00:11;13.38;;;1.45;;
20411;SDS011;10365;52.578;8.138;2023-03-31T17:02:37;11.15;;;2.58;;
20411;SDS011;10365;52.578;8.138;2023-03-31T17:05:02;11.90;;;2.45;;
20411;SDS011;10365;52.578;8.138;2023-03-31T17:07:28;11.50;;;2.60;;
20411;SDS011;10365;52.578;8.138;2023-03-31T17:09:54;12.35;;;2.90;;
20411;SDS011;10365;52.578;8.138;2023-03-31T17:12:19;8.73;;;2.72;;
20411;SDS011;10365;52.578;8.138;2023-03-31T17:14:45;11.15;;;3.50;;
20411;SDS011;10365;52.578;8.138;2023-03-31T17:17:10;9.13;;;2.40;;
20411;SDS011;10365;52.578;8.138;2023-03-31T17:19:36;13.27;;;1.77;;
20411;SDS011;10365;52.578;8.138;2023-03-31T17:22:01;6.80;;;1.30;;
20411;SDS011;10365;52.578;8.138;2023-03-31T17:24:27;8.25;;;2.03;;
20411;SDS011;10365;52.578;8.138;2023-03-31T17:26:53;6.30;;;1.73;;
20411;SDS011;10365;52.578;8.138;2023-03-31T17:29:19;7.65;;;1.73;;
20411;SDS011;10365;52.578;8.138;2023-03-31T17:31:44;6.45;;;1.27;;
20411;SDS011;10365;52.578;8.138;2023-03-31T17:34:10;8.10;;;1.40;;
20411;SDS011;10365;52.578;8.138;2023-03-31T17:36:35;8.63;;;2.38;;
20411;SDS011;10365;52.578;8.138;2023-03-31T17:39:01;5.95;;;1.10;;
20411;SDS011;10365;52.578;8.138;2023-03-31T17:41:26;7.15;;;2.63;;
20411;SDS011;10365;52.578;8.138;2023-03-31T17:43:54;17.92;;;7.90;;
20411;SDS011;10365;52.578;8.138;2023-03-31T17:46:19;12.10;;;7.15;;